createdAt,value
2023-04-26T00:00:50.038Z,9.55
2023-04-26T00:03:16.868Z,9.10
2023-04-26T00:05:43.748Z,9.85
2023-04-26T00:08:10.443Z,8.80
2023-04-26T00:10:37.234Z,8.50
2023-04-26T00:13:03.998Z,7.90
2023-04-26T00:15:30.893Z,7.53
2023-04-26T00:17:57.600Z,8.10
2023-04-26T00:20:24.795Z,8.00
2023-04-26T00:22:51.486Z,8.00
2023-04-26T00:25:18.344Z,7.25
2023-04-26T00:27:45.011Z,8.23
2023-04-26T00:30:12.209Z,8.48
2023-04-26T00:32:39.397Z,7.90
2023-04-26T00:35:06.521Z,8.05
2023-04-26T00:37:33.197Z,8.55
2023-04-26T00:39:59.866Z,8.77
2023-04-26T00:42:27.785Z,8.85
2023-04-26T00:44:57.363Z,8.65
2023-04-26T00:47:25.825Z,9.05
2023-04-26T00:49:53.230Z,9.10
2023-04-26T00:52:19.932Z,9.23
2023-04-26T00:54:48.752Z,9.15
2023-04-26T00:57:15.502Z,8.73
2023-04-26T00:59:42.164Z,9.15
2023-04-26T01:02:09.252Z,10.20
2023-04-26T01:04:37.241Z,9.98
2023-04-26T01:07:04.048Z,10.20
2023-04-26T01:09:32.085Z,10.32
2023-04-26T01:12:00.601Z,10.57
2023-04-26T01:14:28.238Z,9.98
2023-04-26T01:16:56.664Z,9.98
2023-04-26T01:19:23.440Z,9.90
2023-04-26T01:21:50.107Z,10.55
2023-04-26T01:24:16.862Z,10.27
2023-04-26T01:26:46.594Z,11.50
2023-04-26T01:29:20.378Z,11.02
2023-04-26T01:31:48.112Z,10.88
2023-04-26T01:34:15.684Z,9.93
2023-04-26T01:36:42.704Z,11.02
2023-04-26T01:39:09.573Z,10.20
2023-04-26T01:41:36.692Z,10.82
2023-04-26T01:44:03.974Z,10.15
2023-04-26T01:46:30.801Z,10.45
2023-04-26T01:48:57.668Z,10.05
2023-04-26T01:51:24.429Z,9.50
2023-04-26T01:53:51.155Z,9.68
2023-04-26T01:56:18.546Z,9.52
2023-04-26T01:58:45.648Z,9.77
2023-04-26T02:01:12.529Z,9.35
2023-04-26T02:03:39.427Z,8.80
2023-04-26T02:06:06.446Z,9.85
2023-04-26T02:08:33.589Z,9.80
2023-04-26T02:11:00.436Z,9.77
2023-04-26T02:13:27.335Z,10.20
2023-04-26T02:15:54.055Z,11.20
2023-04-26T02:18:22.548Z,11.35
2023-04-26T02:20:49.321Z,12.25
2023-04-26T02:23:16.624Z,10.95
2023-04-26T02:25:47.561Z,11.15
2023-04-26T02:28:16.323Z,10.15
2023-04-26T02:30:43.235Z,10.60
2023-04-26T02:33:10.134Z,11.10
2023-04-26T02:35:37.495Z,10.55
2023-04-26T02:38:04.506Z,10.90
2023-04-26T02:40:31.361Z,10.88
2023-04-26T02:42:58.109Z,10.50
2023-04-26T02:45:24.849Z,10.00
2023-04-26T02:47:51.590Z,9.90
2023-04-26T02:50:18.357Z,9.90
2023-04-26T02:52:45.039Z,11.30
2023-04-26T02:55:11.672Z,10.73
2023-04-26T02:57:38.554Z,10.32
2023-04-26T03:00:05.934Z,10.32
2023-04-26T03:02:33.404Z,10.32
2023-04-26T03:05:00.412Z,10.20
2023-04-26T03:07:27.167Z,9.30
2023-04-26T03:09:53.810Z,8.93
2023-04-26T03:12:20.480Z,9.80
2023-04-26T03:14:47.281Z,8.57
2023-04-26T03:17:13.971Z,9.05
2023-04-26T03:19:40.732Z,8.68
2023-04-26T03:22:07.588Z,8.93
2023-04-26T03:24:34.288Z,9.23
2023-04-26T03:27:01.177Z,8.98
2023-04-26T03:29:27.849Z,9.40
2023-04-26T03:31:54.736Z,9.30
2023-04-26T03:34:21.783Z,8.88
2023-04-26T03:36:48.522Z,8.13
2023-04-26T03:39:16.490Z,9.70
2023-04-26T03:41:43.275Z,9.50
2023-04-26T03:44:10.005Z,9.85
2023-04-26T03:46:36.669Z,8.23
2023-04-26T03:49:03.434Z,9.00
2023-04-26T03:51:31.441Z,9.50
2023-04-26T03:53:59.600Z,10.48
2023-04-26T03:56:26.270Z,10.52
2023-04-26T03:58:53.089Z,11.02
2023-04-26T04:01:20.579Z,9.50
2023-04-26T04:03:47.586Z,9.43
2023-04-26T04:06:14.554Z,9.40
2023-04-26T04:08:41.482Z,8.35
2023-04-26T04:11:08.154Z,9.00
2023-04-26T04:13:34.882Z,8.45
2023-04-26T04:16:01.724Z,10.15
2023-04-26T04:18:28.526Z,9.35
2023-04-26T04:20:55.249Z,9.57
2023-04-26T04:23:22.013Z,9.30
2023-04-26T04:25:49.192Z,9.73
2023-04-26T04:28:16.498Z,9.65
2023-04-26T04:30:44.227Z,8.93
2023-04-26T04:33:10.918Z,9.75
2023-04-26T04:35:37.633Z,8.52
2023-04-26T04:38:04.620Z,8.50
2023-04-26T04:40:31.406Z,8.90
2023-04-26T04:42:58.196Z,8.88
2023-04-26T04:45:24.894Z,9.05
2023-04-26T04:47:54.023Z,9.75
2023-04-26T04:50:21.788Z,8.85
2023-04-26T04:52:48.445Z,8.95
2023-04-26T04:55:15.142Z,8.73
2023-04-26T04:57:42.980Z,8.75
2023-04-26T05:00:10.772Z,8.73
2023-04-26T05:02:37.842Z,9.20
2023-04-26T05:05:05.610Z,8.73
2023-04-26T05:07:32.773Z,8.70
2023-04-26T05:10:00.186Z,9.65
2023-04-26T05:12:27.441Z,9.05
2023-04-26T05:14:54.146Z,8.52
2023-04-26T05:17:20.938Z,8.93
2023-04-26T05:19:48.249Z,9.70
2023-04-26T05:22:18.431Z,9.95
2023-04-26T05:24:47.024Z,10.40
2023-04-26T05:27:14.397Z,10.98
2023-04-26T05:29:41.834Z,11.55
2023-04-26T05:32:08.873Z,10.90
2023-04-26T05:34:36.758Z,11.02
2023-04-26T05:37:03.665Z,10.75
2023-04-26T05:39:30.755Z,10.20
2023-04-26T05:41:57.478Z,9.90
2023-04-26T05:44:24.670Z,10.48
2023-04-26T05:46:51.455Z,10.48
2023-04-26T05:49:18.253Z,10.23
2023-04-26T05:51:44.949Z,10.23
2023-04-26T05:54:11.711Z,9.57
2023-04-26T05:56:39.525Z,10.63
2023-04-26T05:59:06.214Z,10.90
2023-04-26T06:01:32.927Z,11.32
2023-04-26T06:04:01.202Z,11.27
2023-04-26T06:06:28.565Z,12.50
2023-04-26T06:08:55.674Z,12.27
2023-04-26T06:11:22.519Z,12.75
2023-04-26T06:13:49.473Z,11.50
2023-04-26T06:16:16.784Z,11.70
2023-04-26T06:18:43.886Z,10.52
2023-04-26T06:21:10.565Z,9.85
2023-04-26T06:23:37.286Z,9.93
2023-04-26T06:26:03.993Z,10.48
2023-04-26T06:28:31.070Z,10.30
2023-04-26T06:30:57.852Z,10.93
2023-04-26T06:33:24.607Z,10.65
2023-04-26T06:35:52.398Z,11.20
2023-04-26T06:38:19.115Z,11.05
2023-04-26T06:40:45.807Z,11.32
2023-04-26T06:43:12.481Z,11.40
2023-04-26T06:45:40.565Z,11.57
2023-04-26T06:48:08.496Z,10.60
2023-04-26T06:50:38.953Z,9.90
2023-04-26T06:53:07.037Z,10.02
2023-04-26T06:55:35.052Z,10.02
2023-04-26T06:58:01.856Z,10.93
2023-04-26T07:00:29.996Z,10.70
2023-04-26T07:02:57.337Z,10.18
2023-04-26T07:05:24.227Z,10.20
2023-04-26T07:07:50.983Z,10.68
2023-04-26T07:10:17.728Z,9.73
2023-04-26T07:12:44.873Z,10.05
2023-04-26T07:15:12.353Z,10.73
2023-04-26T07:17:39.224Z,9.43
2023-04-26T07:20:06.726Z,11.00
2023-04-26T07:22:33.459Z,10.63
2023-04-26T07:25:00.495Z,10.43
2023-04-26T07:27:27.262Z,9.98
2023-04-26T07:29:55.373Z,9.57
2023-04-26T07:32:22.346Z,9.80
2023-04-26T07:34:49.108Z,9.65
2023-04-26T07:37:16.164Z,9.50
2023-04-26T07:39:42.843Z,9.55
2023-04-26T07:42:09.556Z,9.43
2023-04-26T07:44:36.413Z,8.75
2023-04-26T07:47:03.332Z,9.00
2023-04-26T07:49:30.041Z,9.60
2023-04-26T07:51:58.208Z,8.82
2023-04-26T07:54:25.257Z,7.45
2023-04-26T07:56:51.920Z,7.90
2023-04-26T07:59:18.591Z,7.45
2023-04-26T08:01:45.344Z,7.85
2023-04-26T08:04:12.452Z,9.60
2023-04-26T08:06:44.939Z,8.93
2023-04-26T08:09:11.710Z,8.45
2023-04-26T08:11:38.463Z,8.45
2023-04-26T08:14:05.314Z,7.57
2023-04-26T08:16:32.165Z,7.55
2023-04-26T08:19:02.822Z,7.38
2023-04-26T08:21:29.733Z,7.82
2023-04-26T08:23:56.537Z,6.82
2023-04-26T08:26:23.523Z,7.13
2023-04-26T08:28:50.311Z,7.63
2023-04-26T08:31:17.812Z,7.35
2023-04-26T08:33:44.766Z,7.28
2023-04-26T08:36:11.508Z,7.40
2023-04-26T08:38:38.196Z,7.38
2023-04-26T08:41:05.504Z,7.43
2023-04-26T08:43:35.538Z,6.50
2023-04-26T08:46:03.863Z,6.25
2023-04-26T08:48:34.180Z,5.93
2023-04-26T08:51:01.811Z,6.35
2023-04-26T08:53:30.332Z,5.97
2023-04-26T08:55:58.145Z,6.15
2023-04-26T08:58:25.022Z,5.60
2023-04-26T09:00:52.338Z,6.15
2023-04-26T09:03:19.269Z,6.40
2023-04-26T09:05:46.097Z,6.28
2023-04-26T09:08:19.782Z,5.72
2023-04-26T09:10:46.692Z,5.90
2023-04-26T09:13:14.487Z,5.03
2023-04-26T09:15:41.885Z,5.40
2023-04-26T09:18:19.725Z,4.93
2023-04-26T09:21:01.850Z,5.30
2023-04-26T09:23:28.505Z,5.30
2023-04-26T09:25:55.467Z,4.03
2023-04-26T09:28:24.105Z,4.38
2023-04-26T09:30:50.922Z,3.80
2023-04-26T09:33:19.470Z,3.95
2023-04-26T09:35:46.502Z,4.03
2023-04-26T09:38:19.387Z,3.67
2023-04-26T09:40:47.796Z,3.70
2023-04-26T09:43:16.632Z,4.30
2023-04-26T09:45:47.229Z,4.18
2023-04-26T09:48:25.929Z,4.45
2023-04-26T09:50:56.862Z,4.00
2023-04-26T09:53:27.850Z,3.70
2023-04-26T09:56:08.173Z,4.32
2023-04-26T09:58:39.157Z,4.30
2023-04-26T10:01:08.552Z,4.20
2023-04-26T10:03:37.176Z,3.53
2023-04-26T10:06:04.800Z,3.38
2023-04-26T10:08:33.004Z,3.63
2023-04-26T10:11:01.820Z,3.40
2023-04-26T10:13:28.608Z,3.30
2023-04-26T10:15:56.578Z,3.42
2023-04-26T10:18:23.395Z,4.07
2023-04-26T10:20:53.711Z,3.85
2023-04-26T10:23:25.792Z,4.00
2023-04-26T10:25:53.182Z,3.60
2023-04-26T10:28:39.791Z,3.95
2023-04-26T10:31:07.775Z,3.25
2023-04-26T10:33:34.488Z,3.00
2023-04-26T10:36:07.228Z,3.63
2023-04-26T10:38:39.869Z,2.85
2023-04-26T10:41:33.282Z,2.40
2023-04-26T10:44:22.032Z,2.63
2023-04-26T10:46:55.073Z,2.70
2023-04-26T10:49:24.974Z,3.08
2023-04-26T10:52:12.775Z,3.03
2023-04-26T10:54:58.999Z,2.80
2023-04-26T10:57:49.666Z,1.98
2023-04-26T11:00:17.726Z,4.30
2023-04-26T11:02:58.106Z,4.32
2023-04-26T11:05:43.615Z,4.13
2023-04-26T11:08:30.203Z,3.78
2023-04-26T11:11:10.491Z,3.75
2023-04-26T11:13:38.661Z,3.42
2023-04-26T11:16:07.987Z,3.50
2023-04-26T11:18:36.582Z,3.88
2023-04-26T11:21:05.243Z,3.65
2023-04-26T11:23:32.262Z,3.92
2023-04-26T11:26:08.391Z,3.67
2023-04-26T11:28:37.317Z,4.20
2023-04-26T11:31:05.262Z,3.50
2023-04-26T11:33:34.213Z,3.63
2023-04-26T11:36:02.198Z,3.30
2023-04-26T11:38:29.446Z,2.97
2023-04-26T11:41:03.120Z,3.00
2023-04-26T11:43:36.765Z,2.72
2023-04-26T11:46:08.407Z,3.03
2023-04-26T11:48:37.516Z,2.60
2023-04-26T11:51:05.978Z,2.60
2023-04-26T11:53:42.996Z,2.83
2023-04-26T11:56:20.289Z,2.50
2023-04-26T11:58:52.786Z,2.50
2023-04-26T12:01:23.893Z,2.88
2023-04-26T12:03:53.001Z,2.50
2023-04-26T12:06:21.005Z,2.75
2023-04-26T12:08:53.802Z,3.10
2023-04-26T12:11:21.268Z,2.70
2023-04-26T12:13:48.410Z,2.58
2023-04-26T12:16:25.748Z,2.63
2023-04-26T12:18:55.288Z,2.70
2023-04-26T12:21:22.648Z,2.45
2023-04-26T12:23:49.483Z,2.08
2023-04-26T12:26:16.795Z,2.10
2023-04-26T12:28:44.066Z,2.60
2023-04-26T12:31:11.303Z,2.53
2023-04-26T12:33:38.127Z,2.42
2023-04-26T12:36:12.104Z,2.50
2023-04-26T12:38:39.954Z,2.97
2023-04-26T12:41:06.962Z,2.30
2023-04-26T12:43:33.776Z,2.20
2023-04-26T12:46:01.468Z,2.58
2023-04-26T12:48:28.936Z,2.42
2023-04-26T12:50:55.919Z,2.20
2023-04-26T12:53:22.803Z,1.90
2023-04-26T12:55:49.524Z,2.60
2023-04-26T12:58:16.436Z,2.60
2023-04-26T13:00:44.641Z,2.50
2023-04-26T13:03:14.549Z,2.30
2023-04-26T13:05:41.918Z,2.10
2023-04-26T13:08:08.883Z,2.90
2023-04-26T13:10:35.828Z,2.35
2023-04-26T13:13:02.773Z,2.10
2023-04-26T13:15:30.104Z,2.10
2023-04-26T13:17:57.036Z,1.70
2023-04-26T13:20:25.993Z,1.90
2023-04-26T13:22:54.006Z,2.05
2023-04-26T13:25:20.672Z,1.73
2023-04-26T13:27:47.399Z,2.17
2023-04-26T13:30:14.708Z,1.90
2023-04-26T13:32:41.480Z,2.15
2023-04-26T13:35:08.689Z,1.90
2023-04-26T13:37:35.707Z,1.80
2023-04-26T13:40:04.198Z,2.08
2023-04-26T13:42:31.977Z,1.75
2023-04-26T13:44:58.760Z,1.80
2023-04-26T13:47:25.850Z,1.75
2023-04-26T13:49:52.593Z,1.70
2023-04-26T13:52:19.279Z,2.00
2023-04-26T13:54:46.112Z,1.80
2023-04-26T13:57:13.022Z,1.73
2023-04-26T13:59:40.668Z,2.05
2023-04-26T14:02:07.513Z,2.28
2023-04-26T14:04:34.674Z,2.00
2023-04-26T14:07:01.609Z,2.72
2023-04-26T14:09:28.286Z,2.60
2023-04-26T14:12:07.362Z,4.13
2023-04-26T14:14:34.947Z,2.15
2023-04-26T14:17:01.859Z,1.80
2023-04-26T14:19:28.656Z,1.85
2023-04-26T14:21:55.442Z,2.05
2023-04-26T14:24:22.138Z,1.80
2023-04-26T14:26:49.002Z,1.60
2023-04-26T14:29:15.865Z,1.80
2023-04-26T14:31:42.593Z,2.08
2023-04-26T14:34:09.381Z,2.58
2023-04-26T14:36:36.153Z,1.90
2023-04-26T14:39:03.024Z,2.00
2023-04-26T14:41:29.681Z,2.20
2023-04-26T14:43:56.396Z,1.95
2023-04-26T14:46:23.194Z,3.05
2023-04-26T14:48:49.904Z,2.05
2023-04-26T14:51:16.798Z,2.58
2023-04-26T14:53:43.533Z,2.10
2023-04-26T14:56:10.258Z,2.30
2023-04-26T14:58:37.089Z,2.20
2023-04-26T15:01:04.500Z,2.10
2023-04-26T15:03:32.761Z,2.33
2023-04-26T15:06:00.179Z,1.85
2023-04-26T15:08:26.985Z,1.73
2023-04-26T15:10:53.970Z,1.60
2023-04-26T15:13:20.808Z,2.00
2023-04-26T15:15:47.540Z,1.70
2023-04-26T15:18:14.408Z,1.95
2023-04-26T15:20:41.575Z,1.70
2023-04-26T15:23:08.575Z,2.15
2023-04-26T15:25:36.887Z,1.83
2023-04-26T15:28:04.102Z,1.60
2023-04-26T15:30:31.069Z,1.85
2023-04-26T15:32:58.063Z,1.55
2023-04-26T15:35:25.138Z,1.90
2023-04-26T15:37:53.961Z,2.20
2023-04-26T15:40:22.224Z,2.00
2023-04-26T15:42:49.456Z,2.20
2023-04-26T15:45:16.824Z,1.70
2023-04-26T15:47:43.887Z,1.80
2023-04-26T15:50:10.953Z,1.80
2023-04-26T15:52:39.407Z,1.83
2023-04-26T15:55:07.449Z,1.90
2023-04-26T15:57:34.816Z,1.98
2023-04-26T16:00:01.819Z,1.90
2023-04-26T16:02:28.783Z,2.10
2023-04-26T16:04:56.400Z,2.08
2023-04-26T16:07:23.558Z,1.80
2023-04-26T16:09:50.522Z,2.30
2023-04-26T16:12:17.257Z,2.17
2023-04-26T16:14:43.946Z,2.20
2023-04-26T16:17:10.695Z,2.22
2023-04-26T16:19:37.549Z,2.40
2023-04-26T16:22:04.417Z,2.20
2023-04-26T16:24:31.249Z,2.40
2023-04-26T16:26:58.019Z,2.15
2023-04-26T16:29:25.250Z,1.90
2023-04-26T16:31:52.658Z,2.10
2023-04-26T16:34:20.044Z,2.28
2023-04-26T16:36:46.901Z,1.90
2023-04-26T16:39:15.757Z,1.90
2023-04-26T16:41:43.137Z,2.30
2023-04-26T16:44:10.221Z,2.05
2023-04-26T16:46:37.484Z,2.40
2023-04-26T16:49:09.420Z,1.95
2023-04-26T16:51:37.584Z,1.80
2023-04-26T16:54:04.469Z,1.70
2023-04-26T16:56:32.123Z,2.00
2023-04-26T16:58:59.192Z,1.88
2023-04-26T17:01:26.194Z,1.70
2023-04-26T17:03:53.302Z,2.35
2023-04-26T17:06:20.434Z,2.08
2023-04-26T17:08:47.582Z,2.00
2023-04-26T17:11:17.856Z,2.00
2023-04-26T17:13:45.096Z,1.73
2023-04-26T17:16:12.208Z,1.80
2023-04-26T17:18:38.961Z,2.20
2023-04-26T17:21:06.182Z,2.35
2023-04-26T17:23:33.772Z,1.90
2023-04-26T17:26:02.013Z,1.92
2023-04-26T17:28:28.925Z,1.90
2023-04-26T17:30:55.756Z,1.80
2023-04-26T17:33:23.112Z,1.90
2023-04-26T17:35:50.194Z,1.90
2023-04-26T17:38:17.090Z,2.20
2023-04-26T17:40:43.791Z,2.20
2023-04-26T17:43:11.467Z,2.20
2023-04-26T17:45:38.286Z,2.30
2023-04-26T17:48:05.598Z,1.92
2023-04-26T17:50:32.314Z,2.47
2023-04-26T17:52:59.049Z,2.30
2023-04-26T17:55:26.103Z,2.40
2023-04-26T17:57:52.831Z,1.88
2023-04-26T18:00:19.885Z,2.50
2023-04-26T18:02:47.324Z,2.58
2023-04-26T18:05:14.511Z,2.70
2023-04-26T18:07:41.376Z,2.63
2023-04-26T18:10:08.758Z,2.40
2023-04-26T18:12:36.291Z,2.50
2023-04-26T18:15:03.355Z,2.50
2023-04-26T18:17:30.255Z,2.60
2023-04-26T18:19:57.006Z,2.10
2023-04-26T18:22:23.737Z,2.00
2023-04-26T18:24:50.467Z,2.13
2023-04-26T18:27:17.246Z,2.20
2023-04-26T18:29:44.095Z,2.40
2023-04-26T18:32:10.854Z,2.20
2023-04-26T18:34:37.646Z,2.40
2023-04-26T18:37:04.901Z,2.45
2023-04-26T18:39:31.703Z,2.33
2023-04-26T18:41:58.477Z,2.40
2023-04-26T18:44:25.198Z,3.00
2023-04-26T18:46:55.730Z,2.92
2023-04-26T18:49:23.390Z,3.10
2023-04-26T18:51:50.303Z,3.30
2023-04-26T18:54:17.036Z,3.80
2023-04-26T18:56:44.099Z,4.07
2023-04-26T18:59:11.115Z,4.00
2023-04-26T19:01:37.928Z,3.17
2023-04-26T19:04:05.015Z,4.00
2023-04-26T19:06:33.108Z,3.60
2023-04-26T19:09:01.045Z,3.55
2023-04-26T19:11:27.769Z,3.13
2023-04-26T19:13:54.470Z,3.53
2023-04-26T19:16:21.276Z,3.72
2023-04-26T19:18:49.098Z,3.20
2023-04-26T19:21:16.309Z,3.35
2023-04-26T19:23:44.815Z,3.03
2023-04-26T19:26:12.853Z,2.80
2023-04-26T19:28:39.654Z,2.70
2023-04-26T19:31:06.690Z,2.60
2023-04-26T19:33:33.412Z,2.80
2023-04-26T19:36:00.119Z,2.72
2023-04-26T19:38:26.963Z,2.88
2023-04-26T19:40:53.662Z,3.20
2023-04-26T19:43:21.098Z,3.15
2023-04-26T19:45:48.058Z,3.05
2023-04-26T19:48:15.054Z,2.80
2023-04-26T19:50:43.312Z,2.80
2023-04-26T19:53:11.403Z,2.40
2023-04-26T19:55:38.738Z,2.80
2023-04-26T19:58:06.097Z,3.95
2023-04-26T20:00:36.179Z,3.90
2023-04-26T20:03:03.203Z,3.20
2023-04-26T20:05:30.031Z,3.30
2023-04-26T20:07:57.460Z,2.67
2023-04-26T20:10:24.906Z,3.08
2023-04-26T20:12:51.979Z,3.03
2023-04-26T20:15:19.247Z,2.63
2023-04-26T20:17:46.149Z,2.97
2023-04-26T20:20:13.141Z,2.85
2023-04-26T20:22:40.815Z,3.05
2023-04-26T20:25:08.151Z,3.03
2023-04-26T20:27:34.881Z,3.47
2023-04-26T20:30:01.762Z,3.38
2023-04-26T20:32:28.625Z,3.35
2023-04-26T20:34:55.410Z,3.10
2023-04-26T20:37:22.179Z,3.22
2023-04-26T20:39:49.164Z,3.00
2023-04-26T20:42:16.189Z,2.72
2023-04-26T20:44:43.221Z,2.85
2023-04-26T20:47:09.951Z,2.90
2023-04-26T20:49:36.739Z,2.60
2023-04-26T20:52:03.883Z,2.50
2023-04-26T20:54:31.244Z,2.45
2023-04-26T20:56:57.935Z,2.72
2023-04-26T20:59:25.238Z,3.00
2023-04-26T21:01:53.650Z,3.00
2023-04-26T21:04:20.924Z,3.85
2023-04-26T21:06:47.912Z,3.55
2023-04-26T21:09:14.639Z,3.72
2023-04-26T21:11:41.556Z,4.00
2023-04-26T21:14:09.137Z,3.65
2023-04-26T21:16:35.981Z,3.92
2023-04-26T21:19:03.353Z,4.00
2023-04-26T21:21:30.134Z,4.32
2023-04-26T21:23:56.842Z,3.95
2023-04-26T21:26:23.546Z,4.20
2023-04-26T21:28:50.304Z,4.45
2023-04-26T21:31:17.174Z,4.60
2023-04-26T21:33:43.911Z,4.85
2023-04-26T21:36:10.684Z,4.75
2023-04-26T21:38:37.366Z,5.28
2023-04-26T21:41:04.080Z,5.38
2023-04-26T21:43:31.098Z,5.22
2023-04-26T21:45:58.507Z,5.10
2023-04-26T21:48:26.222Z,5.30
2023-04-26T21:50:53.256Z,5.50
2023-04-26T21:53:19.929Z,5.85
2023-04-26T21:55:53.881Z,5.45
2023-04-26T21:58:21.509Z,5.28
2023-04-26T22:00:48.850Z,5.57
2023-04-26T22:03:16.483Z,5.82
2023-04-26T22:05:43.345Z,5.68
2023-04-26T22:08:10.085Z,6.07
2023-04-26T22:10:36.856Z,5.90
2023-04-26T22:13:03.673Z,5.90
2023-04-26T22:15:30.770Z,6.45
2023-04-26T22:17:57.619Z,6.13
2023-04-26T22:20:24.440Z,6.10
2023-04-26T22:22:51.137Z,6.70
2023-04-26T22:25:17.839Z,6.93
2023-04-26T22:27:44.520Z,5.95
2023-04-26T22:30:23.136Z,6.22
2023-04-26T22:32:52.828Z,6.47
2023-04-26T22:35:23.786Z,6.15
2023-04-26T22:37:50.819Z,6.55
2023-04-26T22:40:17.537Z,6.43
2023-04-26T22:42:44.779Z,6.38
2023-04-26T22:45:12.729Z,6.35
2023-04-26T22:47:40.888Z,6.70
2023-04-26T22:50:08.441Z,6.40
2023-04-26T22:52:35.793Z,6.20
2023-04-26T22:55:02.719Z,6.88
2023-04-26T22:57:30.096Z,7.05
2023-04-26T22:59:57.047Z,7.30
2023-04-26T23:02:24.298Z,7.45
2023-04-26T23:04:51.408Z,7.18
2023-04-26T23:07:18.182Z,6.85
2023-04-26T23:09:44.920Z,6.90
2023-04-26T23:12:11.763Z,7.47
2023-04-26T23:14:38.455Z,7.95
2023-04-26T23:17:05.742Z,6.85
2023-04-26T23:19:33.182Z,6.93
2023-04-26T23:22:00.170Z,6.97
2023-04-26T23:24:27.072Z,6.72
2023-04-26T23:26:54.044Z,7.18
2023-04-26T23:29:20.984Z,6.97
2023-04-26T23:31:47.826Z,6.70
2023-04-26T23:34:14.582Z,6.45
2023-04-26T23:36:41.581Z,6.90
2023-04-26T23:39:08.867Z,6.50
2023-04-26T23:41:35.893Z,6.45
2023-04-26T23:44:02.599Z,5.93
2023-04-26T23:46:29.419Z,6.15
2023-04-26T23:48:56.283Z,6.63
2023-04-26T23:51:23.004Z,6.25
2023-04-26T23:53:49.708Z,6.28
2023-04-26T23:56:16.515Z,6.47
2023-04-26T23:58:43.164Z,6.40
